sensor_id;sensor_type;location;lat;lon;timestamp;P1;durP1;ratioP1;P2;durP2;ratioP2
79493;SDS011;68951;53.130;18.104;2024-02-28T00:02:02;26.00;;;10.10;;
79493;SDS011;68951;53.130;18.104;2024-02-28T00:04:29;26.20;;;10.30;;
79493;SDS011;68951;53.130;18.104;2024-02-28T00:06:56;25.50;;;10.40;;
79493;SDS011;68951;53.130;18.104;2024-02-28T00:09:23;23.80;;;9.20;;
79493;SDS011;68951;53.130;18.104;2024-02-28T00:11:50;27.80;;;10.40;;
79493;SDS011;68951;53.130;18.104;2024-02-28T00:14:16;27.60;;;10.50;;
79493;SDS011;68951;53.130;18.104;2024-02-28T00:16:44;26.30;;;10.60;;
79493;SDS011;68951;53.130;18.104;2024-02-28T00:19:12;22.70;;;8.80;;
79493;SDS011;68951;53.130;18.104;2024-02-28T00:21:40;24.80;;;10.20;;
79493;SDS011;68951;53.130;18.104;2024-02-28T00:24:07;23.70;;;9.30;;
79493;SDS011;68951;53.130;18.104;2024-02-28T00:26:34;24.00;;;9.20;;
79493;SDS011;68951;53.130;18.104;2024-02-28T00:29:01;27.40;;;11.20;;
79493;SDS011;68951;53.130;18.104;2024-02-28T00:31:28;29.30;;;11.30;;
79493;SDS011;68951;53.130;18.104;2024-02-28T00:33:55;25.50;;;10.60;;
79493;SDS011;68951;53.130;18.104;2024-02-28T00:36:22;28.30;;;10.70;;
79493;SDS011;68951;53.130;18.104;2024-02-28T00:38:49;24.50;;;9.90;;
79493;SDS011;68951;53.130;18.104;2024-02-28T00:41:16;25.80;;;10.50;;
79493;SDS011;68951;53.130;18.104;2024-02-28T00:43:42;27.30;;;11.00;;
79493;SDS011;68951;53.130;18.104;2024-02-28T00:46:09;26.20;;;9.70;;
79493;SDS011;68951;53.130;18.104;2024-02-28T00:48:38;25.80;;;10.50;;
79493;SDS011;68951;53.130;18.104;2024-02-28T00:51:05;27.50;;;11.00;;
79493;SDS011;68951;53.130;18.104;2024-02-28T00:53:32;26.20;;;10.20;;
79493;SDS011;68951;53.130;18.104;2024-02-28T00:55:59;27.70;;;9.90;;
79493;SDS011;68951;53.130;18.104;2024-02-28T00:58:26;24.30;;;10.00;;
79493;SDS011;68951;53.130;18.104;2024-02-28T01:00:54;21.80;;;8.80;;
79493;SDS011;68951;53.130;18.104;2024-02-28T01:03:21;20.30;;;8.90;;
79493;SDS011;68951;53.130;18.104;2024-02-28T01:05:49;24.60;;;8.60;;
79493;SDS011;68951;53.130;18.104;2024-02-28T01:08:17;23.90;;;9.70;;
79493;SDS011;68951;53.130;18.104;2024-02-28T01:10:45;24.60;;;9.80;;
79493;SDS011;68951;53.130;18.104;2024-02-28T01:13:12;24.80;;;9.70;;
79493;SDS011;68951;53.130;18.104;2024-02-28T01:15:40;25.50;;;9.10;;
79493;SDS011;68951;53.130;18.104;2024-02-28T01:18:09;21.70;;;9.70;;
79493;SDS011;68951;53.130;18.104;2024-02-28T01:20:36;24.50;;;8.80;;
79493;SDS011;68951;53.130;18.104;2024-02-28T01:23:03;23.60;;;8.60;;
79493;SDS011;68951;53.130;18.104;2024-02-28T01:25:30;23.90;;;8.80;;
79493;SDS011;68951;53.130;18.104;2024-02-28T01:27:58;27.00;;;9.80;;
79493;SDS011;68951;53.130;18.104;2024-02-28T01:30:25;27.60;;;10.90;;
79493;SDS011;68951;53.130;18.104;2024-02-28T01:32:52;25.90;;;10.50;;
79493;SDS011;68951;53.130;18.104;2024-02-28T01:35:19;24.30;;;9.80;;
79493;SDS011;68951;53.130;18.104;2024-02-28T01:37:46;24.60;;;9.40;;
79493;SDS011;68951;53.130;18.104;2024-02-28T01:40:13;25.30;;;10.20;;
79493;SDS011;68951;53.130;18.104;2024-02-28T01:42:39;25.80;;;9.70;;
79493;SDS011;68951;53.130;18.104;2024-02-28T01:45:13;26.60;;;9.90;;
79493;SDS011;68951;53.130;18.104;2024-02-28T01:47:41;20.20;;;8.40;;
79493;SDS011;68951;53.130;18.104;2024-02-28T01:50:12;24.50;;;8.60;;
79493;SDS011;68951;53.130;18.104;2024-02-28T01:52:39;19.30;;;7.30;;
79493;SDS011;68951;53.130;18.104;2024-02-28T01:55:08;23.40;;;8.80;;
79493;SDS011;68951;53.130;18.104;2024-02-28T01:57:36;23.80;;;8.90;;
79493;SDS011;68951;53.130;18.104;2024-02-28T02:00:05;21.10;;;9.00;;
79493;SDS011;68951;53.130;18.104;2024-02-28T02:02:34;22.90;;;8.90;;
79493;SDS011;68951;53.130;18.104;2024-02-28T02:05:01;21.80;;;8.70;;
79493;SDS011;68951;53.130;18.104;2024-02-28T02:07:29;23.00;;;8.50;;
79493;SDS011;68951;53.130;18.104;2024-02-28T02:09:56;22.00;;;8.00;;
79493;SDS011;68951;53.130;18.104;2024-02-28T02:12:22;22.30;;;7.80;;
79493;SDS011;68951;53.130;18.104;2024-02-28T02:14:49;26.30;;;8.60;;
79493;SDS011;68951;53.130;18.104;2024-02-28T02:17:16;23.20;;;9.00;;
79493;SDS011;68951;53.130;18.104;2024-02-28T02:19:44;25.40;;;9.20;;
79493;SDS011;68951;53.130;18.104;2024-02-28T02:22:13;22.50;;;8.70;;
79493;SDS011;68951;53.130;18.104;2024-02-28T02:24:41;22.20;;;8.50;;
79493;SDS011;68951;53.130;18.104;2024-02-28T02:27:08;23.50;;;8.20;;
79493;SDS011;68951;53.130;18.104;2024-02-28T02:29:35;22.00;;;9.00;;
79493;SDS011;68951;53.130;18.104;2024-02-28T02:32:01;19.80;;;7.10;;
79493;SDS011;68951;53.130;18.104;2024-02-28T02:34:28;24.40;;;8.70;;
79493;SDS011;68951;53.130;18.104;2024-02-28T02:36:55;22.70;;;8.70;;
79493;SDS011;68951;53.130;18.104;2024-02-28T02:39:22;26.40;;;9.40;;
79493;SDS011;68951;53.130;18.104;2024-02-28T02:41:48;24.80;;;9.50;;
79493;SDS011;68951;53.130;18.104;2024-02-28T02:44:15;28.10;;;10.40;;
79493;SDS011;68951;53.130;18.104;2024-02-28T02:46:42;22.40;;;8.70;;
79493;SDS011;68951;53.130;18.104;2024-02-28T02:49:09;23.80;;;9.00;;
79493;SDS011;68951;53.130;18.104;2024-02-28T02:51:36;24.70;;;8.50;;
79493;SDS011;68951;53.130;18.104;2024-02-28T02:54:03;21.80;;;8.20;;
79493;SDS011;68951;53.130;18.104;2024-02-28T02:56:29;23.70;;;9.10;;
79493;SDS011;68951;53.130;18.104;2024-02-28T02:58:56;20.30;;;7.90;;
79493;SDS011;68951;53.130;18.104;2024-02-28T03:01:23;25.30;;;9.40;;
79493;SDS011;68951;53.130;18.104;2024-02-28T03:03:50;25.60;;;9.70;;
79493;SDS011;68951;53.130;18.104;2024-02-28T03:06:16;26.90;;;9.80;;
79493;SDS011;68951;53.130;18.104;2024-02-28T03:08:43;26.10;;;9.80;;
79493;SDS011;68951;53.130;18.104;2024-02-28T03:11:10;28.50;;;8.70;;
79493;SDS011;68951;53.130;18.104;2024-02-28T03:13:37;26.60;;;9.30;;
79493;SDS011;68951;53.130;18.104;2024-02-28T03:16:04;27.60;;;9.40;;
79493;SDS011;68951;53.130;18.104;2024-02-28T03:18:32;21.20;;;8.40;;
79493;SDS011;68951;53.130;18.104;2024-02-28T03:20:58;26.00;;;9.90;;
79493;SDS011;68951;53.130;18.104;2024-02-28T03:23:25;21.30;;;7.40;;
79493;SDS011;68951;53.130;18.104;2024-02-28T03:25:52;28.70;;;9.90;;
79493;SDS011;68951;53.130;18.104;2024-02-28T03:28:19;24.70;;;8.70;;
79493;SDS011;68951;53.130;18.104;2024-02-28T03:30:45;29.20;;;9.80;;
79493;SDS011;68951;53.130;18.104;2024-02-28T03:33:12;26.00;;;9.50;;
79493;SDS011;68951;53.130;18.104;2024-02-28T03:35:39;25.70;;;10.60;;
79493;SDS011;68951;53.130;18.104;2024-02-28T03:38:06;24.70;;;9.60;;
79493;SDS011;68951;53.130;18.104;2024-02-28T03:40:33;27.10;;;9.30;;
79493;SDS011;68951;53.130;18.104;2024-02-28T03:42:59;26.60;;;10.50;;
79493;SDS011;68951;53.130;18.104;2024-02-28T03:45:28;23.90;;;9.10;;
79493;SDS011;68951;53.130;18.104;2024-02-28T03:47:55;26.30;;;10.20;;
79493;SDS011;68951;53.130;18.104;2024-02-28T03:50:22;28.10;;;9.70;;
79493;SDS011;68951;53.130;18.104;2024-02-28T03:52:49;17.80;;;6.20;;
79493;SDS011;68951;53.130;18.104;2024-02-28T03:55:16;28.30;;;10.50;;
79493;SDS011;68951;53.130;18.104;2024-02-28T03:57:47;28.70;;;11.90;;
79493;SDS011;68951;53.130;18.104;2024-02-28T04:00:18;26.30;;;10.20;;
79493;SDS011;68951;53.130;18.104;2024-02-28T04:02:45;25.40;;;9.30;;
79493;SDS011;68951;53.130;18.104;2024-02-28T04:05:12;27.50;;;10.00;;
79493;SDS011;68951;53.130;18.104;2024-02-28T04:07:38;27.50;;;9.90;;
79493;SDS011;68951;53.130;18.104;2024-02-28T04:10:06;27.00;;;10.70;;
79493;SDS011;68951;53.130;18.104;2024-02-28T04:12:33;28.90;;;10.60;;
79493;SDS011;68951;53.130;18.104;2024-02-28T04:15:00;26.40;;;9.50;;
79493;SDS011;68951;53.130;18.104;2024-02-28T04:17:27;27.10;;;9.50;;
79493;SDS011;68951;53.130;18.104;2024-02-28T04:19:53;25.30;;;9.20;;
79493;SDS011;68951;53.130;18.104;2024-02-28T04:22:20;26.80;;;10.10;;
79493;SDS011;68951;53.130;18.104;2024-02-28T04:24:47;23.80;;;9.00;;
79493;SDS011;68951;53.130;18.104;2024-02-28T04:27:14;22.10;;;9.50;;
79493;SDS011;68951;53.130;18.104;2024-02-28T04:29:40;23.30;;;8.90;;
79493;SDS011;68951;53.130;18.104;2024-02-28T04:32:07;23.30;;;9.50;;
79493;SDS011;68951;53.130;18.104;2024-02-28T04:34:36;24.50;;;9.80;;
79493;SDS011;68951;53.130;18.104;2024-02-28T04:37:03;24.50;;;9.40;;
79493;SDS011;68951;53.130;18.104;2024-02-28T04:39:30;26.70;;;10.30;;
79493;SDS011;68951;53.130;18.104;2024-02-28T04:41:56;29.40;;;9.60;;
79493;SDS011;68951;53.130;18.104;2024-02-28T04:44:23;25.30;;;9.70;;
79493;SDS011;68951;53.130;18.104;2024-02-28T04:46:50;27.70;;;9.70;;
79493;SDS011;68951;53.130;18.104;2024-02-28T04:49:17;25.00;;;9.50;;
79493;SDS011;68951;53.130;18.104;2024-02-28T04:51:44;26.20;;;9.40;;
79493;SDS011;68951;53.130;18.104;2024-02-28T04:54:10;25.40;;;8.80;;
79493;SDS011;68951;53.130;18.104;2024-02-28T04:56:41;23.40;;;9.20;;
79493;SDS011;68951;53.130;18.104;2024-02-28T04:59:11;23.90;;;9.50;;
79493;SDS011;68951;53.130;18.104;2024-02-28T05:01:39;22.50;;;9.40;;
79493;SDS011;68951;53.130;18.104;2024-02-28T05:04:08;22.00;;;8.00;;
79493;SDS011;68951;53.130;18.104;2024-02-28T05:06:35;24.30;;;9.30;;
79493;SDS011;68951;53.130;18.104;2024-02-28T05:09:02;24.40;;;9.80;;
79493;SDS011;68951;53.130;18.104;2024-02-28T05:11:29;25.30;;;10.60;;
79493;SDS011;68951;53.130;18.104;2024-02-28T05:13:56;25.70;;;9.40;;
79493;SDS011;68951;53.130;18.104;2024-02-28T05:16:23;23.20;;;9.50;;
79493;SDS011;68951;53.130;18.104;2024-02-28T05:18:49;26.00;;;9.50;;
79493;SDS011;68951;53.130;18.104;2024-02-28T05:21:16;25.80;;;9.50;;
79493;SDS011;68951;53.130;18.104;2024-02-28T05:23:43;26.70;;;9.70;;
79493;SDS011;68951;53.130;18.104;2024-02-28T05:26:10;25.70;;;9.60;;
79493;SDS011;68951;53.130;18.104;2024-02-28T05:28:37;22.70;;;9.50;;
79493;SDS011;68951;53.130;18.104;2024-02-28T05:33:51;23.50;;;8.60;;
79493;SDS011;68951;53.130;18.104;2024-02-28T05:36:21;22.80;;;9.40;;
79493;SDS011;68951;53.130;18.104;2024-02-28T05:38:49;17.50;;;7.80;;
79493;SDS011;68951;53.130;18.104;2024-02-28T05:41:16;23.60;;;9.00;;
79493;SDS011;68951;53.130;18.104;2024-02-28T05:43:48;19.30;;;7.30;;
79493;SDS011;68951;53.130;18.104;2024-02-28T05:46:16;19.70;;;8.70;;
79493;SDS011;68951;53.130;18.104;2024-02-28T05:48:44;22.10;;;8.40;;
79493;SDS011;68951;53.130;18.104;2024-02-28T05:51:12;24.60;;;9.50;;
79493;SDS011;68951;53.130;18.104;2024-02-28T05:53:42;20.40;;;8.40;;
79493;SDS011;68951;53.130;18.104;2024-02-28T05:56:09;25.30;;;8.90;;
79493;SDS011;68951;53.130;18.104;2024-02-28T05:58:41;21.10;;;8.40;;
79493;SDS011;68951;53.130;18.104;2024-02-28T06:01:15;19.30;;;7.70;;
79493;SDS011;68951;53.130;18.104;2024-02-28T06:03:45;21.30;;;7.60;;
79493;SDS011;68951;53.130;18.104;2024-02-28T06:06:12;18.60;;;7.60;;
79493;SDS011;68951;53.130;18.104;2024-02-28T06:08:40;19.40;;;8.40;;
79493;SDS011;68951;53.130;18.104;2024-02-28T06:11:07;20.80;;;9.10;;
79493;SDS011;68951;53.130;18.104;2024-02-28T06:13:35;17.80;;;7.40;;
79493;SDS011;68951;53.130;18.104;2024-02-28T06:16:03;16.90;;;7.20;;
79493;SDS011;68951;53.130;18.104;2024-02-28T06:18:30;21.20;;;9.00;;
79493;SDS011;68951;53.130;18.104;2024-02-28T06:21:00;19.60;;;7.90;;
79493;SDS011;68951;53.130;18.104;2024-02-28T06:23:27;21.50;;;8.10;;
79493;SDS011;68951;53.130;18.104;2024-02-28T06:25:55;21.00;;;8.20;;
79493;SDS011;68951;53.130;18.104;2024-02-28T06:28:22;19.20;;;7.30;;
79493;SDS011;68951;53.130;18.104;2024-02-28T06:30:49;19.70;;;7.70;;
79493;SDS011;68951;53.130;18.104;2024-02-28T06:33:16;17.80;;;7.20;;
79493;SDS011;68951;53.130;18.104;2024-02-28T06:35:43;20.90;;;7.70;;
79493;SDS011;68951;53.130;18.104;2024-02-28T06:38:09;20.00;;;8.20;;
79493;SDS011;68951;53.130;18.104;2024-02-28T06:40:36;19.50;;;8.10;;
79493;SDS011;68951;53.130;18.104;2024-02-28T06:43:03;22.40;;;8.00;;
79493;SDS011;68951;53.130;18.104;2024-02-28T06:45:31;22.70;;;7.90;;
79493;SDS011;68951;53.130;18.104;2024-02-28T06:47:58;20.90;;;7.40;;
79493;SDS011;68951;53.130;18.104;2024-02-28T06:50:25;18.90;;;7.70;;
79493;SDS011;68951;53.130;18.104;2024-02-28T06:52:52;21.20;;;8.10;;
79493;SDS011;68951;53.130;18.104;2024-02-28T06:55:20;22.40;;;8.00;;
79493;SDS011;68951;53.130;18.104;2024-02-28T06:57:47;26.20;;;8.80;;
79493;SDS011;68951;53.130;18.104;2024-02-28T07:00:14;20.60;;;8.10;;
79493;SDS011;68951;53.130;18.104;2024-02-28T07:02:42;21.80;;;8.60;;
79493;SDS011;68951;53.130;18.104;2024-02-28T07:05:09;19.60;;;8.30;;
79493;SDS011;68951;53.130;18.104;2024-02-28T07:07:36;25.50;;;8.70;;
79493;SDS011;68951;53.130;18.104;2024-02-28T07:10:04;20.60;;;8.40;;
79493;SDS011;68951;53.130;18.104;2024-02-28T07:12:34;21.50;;;7.60;;
79493;SDS011;68951;53.130;18.104;2024-02-28T07:15:01;18.70;;;6.80;;
79493;SDS011;68951;53.130;18.104;2024-02-28T07:17:28;18.70;;;6.90;;
79493;SDS011;68951;53.130;18.104;2024-02-28T07:19:55;19.10;;;7.30;;
79493;SDS011;68951;53.130;18.104;2024-02-28T07:22:21;21.30;;;7.40;;
79493;SDS011;68951;53.130;18.104;2024-02-28T07:24:48;20.00;;;7.30;;
79493;SDS011;68951;53.130;18.104;2024-02-28T07:27:15;20.10;;;7.10;;
79493;SDS011;68951;53.130;18.104;2024-02-28T07:29:42;19.80;;;8.20;;
79493;SDS011;68951;53.130;18.104;2024-02-28T07:32:10;21.30;;;7.80;;
79493;SDS011;68951;53.130;18.104;2024-02-28T07:34:37;22.10;;;7.10;;
79493;SDS011;68951;53.130;18.104;2024-02-28T07:37:03;20.50;;;7.00;;
79493;SDS011;68951;53.130;18.104;2024-02-28T07:39:30;17.70;;;7.20;;
79493;SDS011;68951;53.130;18.104;2024-02-28T07:41:57;20.80;;;7.30;;
79493;SDS011;68951;53.130;18.104;2024-02-28T07:44:24;20.90;;;7.90;;
79493;SDS011;68951;53.130;18.104;2024-02-28T07:46:51;16.60;;;6.40;;
79493;SDS011;68951;53.130;18.104;2024-02-28T07:49:18;18.60;;;7.00;;
79493;SDS011;68951;53.130;18.104;2024-02-28T07:51:45;16.90;;;6.00;;
79493;SDS011;68951;53.130;18.104;2024-02-28T07:54:12;22.10;;;8.20;;
79493;SDS011;68951;53.130;18.104;2024-02-28T07:56:38;18.60;;;6.50;;
79493;SDS011;68951;53.130;18.104;2024-02-28T07:59:05;17.80;;;6.60;;
79493;SDS011;68951;53.130;18.104;2024-02-28T08:01:33;16.40;;;6.30;;
79493;SDS011;68951;53.130;18.104;2024-02-28T08:03:59;19.30;;;6.60;;
79493;SDS011;68951;53.130;18.104;2024-02-28T08:06:28;16.60;;;6.40;;
79493;SDS011;68951;53.130;18.104;2024-02-28T08:08:55;17.90;;;6.50;;
79493;SDS011;68951;53.130;18.104;2024-02-28T08:11:21;16.00;;;6.30;;
79493;SDS011;68951;53.130;18.104;2024-02-28T08:13:49;14.10;;;5.70;;
79493;SDS011;68951;53.130;18.104;2024-02-28T08:16:16;15.10;;;6.00;;
79493;SDS011;68951;53.130;18.104;2024-02-28T08:18:43;16.50;;;6.50;;
79493;SDS011;68951;53.130;18.104;2024-02-28T08:21:09;15.30;;;5.90;;
79493;SDS011;68951;53.130;18.104;2024-02-28T08:23:36;16.60;;;6.40;;
79493;SDS011;68951;53.130;18.104;2024-02-28T08:26:03;13.20;;;5.70;;
79493;SDS011;68951;53.130;18.104;2024-02-28T08:28:30;14.30;;;6.00;;
79493;SDS011;68951;53.130;18.104;2024-02-28T08:30:58;14.10;;;5.90;;
79493;SDS011;68951;53.130;18.104;2024-02-28T08:33:25;14.40;;;6.30;;
79493;SDS011;68951;53.130;18.104;2024-02-28T08:35:51;16.80;;;6.20;;
79493;SDS011;68951;53.130;18.104;2024-02-28T08:38:18;15.20;;;6.40;;
79493;SDS011;68951;53.130;18.104;2024-02-28T08:40:45;13.50;;;6.20;;
79493;SDS011;68951;53.130;18.104;2024-02-28T08:43:12;14.60;;;6.60;;
79493;SDS011;68951;53.130;18.104;2024-02-28T08:45:39;14.00;;;6.00;;
79493;SDS011;68951;53.130;18.104;2024-02-28T08:48:06;15.10;;;6.30;;
79493;SDS011;68951;53.130;18.104;2024-02-28T08:50:34;15.10;;;6.20;;
79493;SDS011;68951;53.130;18.104;2024-02-28T08:53:02;15.20;;;6.90;;
79493;SDS011;68951;53.130;18.104;2024-02-28T08:55:29;16.50;;;6.70;;
79493;SDS011;68951;53.130;18.104;2024-02-28T08:57:56;15.10;;;6.30;;
79493;SDS011;68951;53.130;18.104;2024-02-28T09:00:23;12.70;;;5.00;;
79493;SDS011;68951;53.130;18.104;2024-02-28T09:02:50;14.50;;;5.80;;
79493;SDS011;68951;53.130;18.104;2024-02-28T09:05:17;15.20;;;6.90;;
79493;SDS011;68951;53.130;18.104;2024-02-28T09:07:44;13.00;;;5.90;;
79493;SDS011;68951;53.130;18.104;2024-02-28T09:10:12;14.80;;;4.70;;
79493;SDS011;68951;53.130;18.104;2024-02-28T09:12:39;13.60;;;5.90;;
79493;SDS011;68951;53.130;18.104;2024-02-28T09:15:06;16.50;;;6.70;;
79493;SDS011;68951;53.130;18.104;2024-02-28T09:17:33;15.70;;;6.70;;
79493;SDS011;68951;53.130;18.104;2024-02-28T09:20:00;12.80;;;5.50;;
79493;SDS011;68951;53.130;18.104;2024-02-28T09:22:27;15.90;;;6.50;;
79493;SDS011;68951;53.130;18.104;2024-02-28T09:24:54;14.10;;;6.90;;
79493;SDS011;68951;53.130;18.104;2024-02-28T09:27:21;16.10;;;7.20;;
79493;SDS011;68951;53.130;18.104;2024-02-28T09:29:48;13.10;;;6.50;;
79493;SDS011;68951;53.130;18.104;2024-02-28T09:32:15;12.30;;;5.90;;
79493;SDS011;68951;53.130;18.104;2024-02-28T09:34:41;13.80;;;6.00;;
79493;SDS011;68951;53.130;18.104;2024-02-28T09:37:08;12.40;;;5.60;;
79493;SDS011;68951;53.130;18.104;2024-02-28T09:39:38;12.60;;;5.20;;
79493;SDS011;68951;53.130;18.104;2024-02-28T09:42:12;13.70;;;6.00;;
79493;SDS011;68951;53.130;18.104;2024-02-28T09:44:42;14.10;;;6.10;;
79493;SDS011;68951;53.130;18.104;2024-02-28T09:47:10;12.60;;;5.60;;
79493;SDS011;68951;53.130;18.104;2024-02-28T09:49:38;12.50;;;5.60;;
79493;SDS011;68951;53.130;18.104;2024-02-28T09:52:05;11.50;;;5.00;;
79493;SDS011;68951;53.130;18.104;2024-02-28T09:54:31;11.90;;;6.10;;
79493;SDS011;68951;53.130;18.104;2024-02-28T09:56:59;11.10;;;4.90;;
79493;SDS011;68951;53.130;18.104;2024-02-28T09:59:26;10.60;;;4.30;;
79493;SDS011;68951;53.130;18.104;2024-02-28T10:01:57;12.00;;;5.10;;
79493;SDS011;68951;53.130;18.104;2024-02-28T10:04:26;13.00;;;5.70;;
79493;SDS011;68951;53.130;18.104;2024-02-28T10:06:56;11.90;;;5.10;;
79493;SDS011;68951;53.130;18.104;2024-02-28T10:09:23;12.10;;;5.80;;
79493;SDS011;68951;53.130;18.104;2024-02-28T10:11:51;12.00;;;5.20;;
79493;SDS011;68951;53.130;18.104;2024-02-28T10:14:18;12.90;;;5.70;;
79493;SDS011;68951;53.130;18.104;2024-02-28T10:16:45;7.50;;;3.20;;
79493;SDS011;68951;53.130;18.104;2024-02-28T10:19:12;12.10;;;4.60;;
79493;SDS011;68951;53.130;18.104;2024-02-28T10:21:39;11.70;;;5.40;;
79493;SDS011;68951;53.130;18.104;2024-02-28T10:24:06;12.80;;;5.70;;
79493;SDS011;68951;53.130;18.104;2024-02-28T10:26:41;13.40;;;6.60;;
79493;SDS011;68951;53.130;18.104;2024-02-28T10:29:14;14.30;;;5.80;;
79493;SDS011;68951;53.130;18.104;2024-02-28T10:31:41;13.90;;;5.50;;
79493;SDS011;68951;53.130;18.104;2024-02-28T10:34:09;15.50;;;6.80;;
79493;SDS011;68951;53.130;18.104;2024-02-28T10:36:36;18.20;;;6.90;;
79493;SDS011;68951;53.130;18.104;2024-02-28T10:39:04;15.70;;;7.10;;
79493;SDS011;68951;53.130;18.104;2024-02-28T10:41:31;16.40;;;6.90;;
79493;SDS011;68951;53.130;18.104;2024-02-28T10:44:01;17.50;;;7.30;;
79493;SDS011;68951;53.130;18.104;2024-02-28T10:46:31;15.10;;;7.10;;
79493;SDS011;68951;53.130;18.104;2024-02-28T10:48:59;15.20;;;6.70;;
79493;SDS011;68951;53.130;18.104;2024-02-28T10:51:26;14.90;;;6.90;;
79493;SDS011;68951;53.130;18.104;2024-02-28T10:54:06;15.70;;;7.50;;
79493;SDS011;68951;53.130;18.104;2024-02-28T10:56:42;18.10;;;7.40;;
79493;SDS011;68951;53.130;18.104;2024-02-28T10:59:10;17.40;;;6.70;;
79493;SDS011;68951;53.130;18.104;2024-02-28T11:01:40;17.00;;;7.20;;
79493;SDS011;68951;53.130;18.104;2024-02-28T11:04:10;18.10;;;8.10;;
79493;SDS011;68951;53.130;18.104;2024-02-28T11:06:54;15.30;;;6.10;;
79493;SDS011;68951;53.130;18.104;2024-02-28T11:09:23;15.90;;;6.80;;
79493;SDS011;68951;53.130;18.104;2024-02-28T11:11:54;18.30;;;8.30;;
79493;SDS011;68951;53.130;18.104;2024-02-28T11:14:22;17.20;;;7.40;;
79493;SDS011;68951;53.130;18.104;2024-02-28T11:17:02;16.70;;;6.60;;
79493;SDS011;68951;53.130;18.104;2024-02-28T11:19:31;17.00;;;6.60;;
79493;SDS011;68951;53.130;18.104;2024-02-28T11:22:00;15.80;;;6.60;;
79493;SDS011;68951;53.130;18.104;2024-02-28T11:24:32;15.80;;;7.40;;
79493;SDS011;68951;53.130;18.104;2024-02-28T11:27:00;16.70;;;7.40;;
79493;SDS011;68951;53.130;18.104;2024-02-28T11:29:29;14.30;;;6.50;;
79493;SDS011;68951;53.130;18.104;2024-02-28T11:31:56;15.10;;;5.70;;
79493;SDS011;68951;53.130;18.104;2024-02-28T11:34:23;15.80;;;7.90;;
79493;SDS011;68951;53.130;18.104;2024-02-28T11:36:50;22.70;;;13.50;;
79493;SDS011;68951;53.130;18.104;2024-02-28T11:39:19;18.10;;;8.30;;
79493;SDS011;68951;53.130;18.104;2024-02-28T11:41:47;12.90;;;6.20;;
79493;SDS011;68951;53.130;18.104;2024-02-28T11:44:16;14.50;;;6.60;;
79493;SDS011;68951;53.130;18.104;2024-02-28T11:46:47;13.60;;;5.70;;
79493;SDS011;68951;53.130;18.104;2024-02-28T11:49:16;13.60;;;6.90;;
79493;SDS011;68951;53.130;18.104;2024-02-28T11:51:43;14.30;;;6.50;;
79493;SDS011;68951;53.130;18.104;2024-02-28T11:54:11;13.70;;;6.40;;
79493;SDS011;68951;53.130;18.104;2024-02-28T11:56:39;12.20;;;6.20;;
79493;SDS011;68951;53.130;18.104;2024-02-28T11:59:06;14.00;;;6.60;;
79493;SDS011;68951;53.130;18.104;2024-02-28T12:01:40;13.10;;;7.00;;
79493;SDS011;68951;53.130;18.104;2024-02-28T12:04:08;11.80;;;5.70;;
79493;SDS011;68951;53.130;18.104;2024-02-28T12:06:37;14.60;;;6.10;;
79493;SDS011;68951;53.130;18.104;2024-02-28T12:09:07;13.50;;;6.30;;
79493;SDS011;68951;53.130;18.104;2024-02-28T12:11:36;17.70;;;7.30;;
79493;SDS011;68951;53.130;18.104;2024-02-28T12:14:05;15.80;;;7.00;;
79493;SDS011;68951;53.130;18.104;2024-02-28T12:16:39;14.40;;;6.10;;
79493;SDS011;68951;53.130;18.104;2024-02-28T12:19:10;13.80;;;6.90;;
79493;SDS011;68951;53.130;18.104;2024-02-28T12:21:39;15.90;;;7.00;;
79493;SDS011;68951;53.130;18.104;2024-02-28T12:24:10;13.90;;;6.50;;
79493;SDS011;68951;53.130;18.104;2024-02-28T12:26:38;14.00;;;6.30;;
79493;SDS011;68951;53.130;18.104;2024-02-28T12:29:06;13.30;;;6.40;;
79493;SDS011;68951;53.130;18.104;2024-02-28T12:31:33;16.10;;;8.00;;
79493;SDS011;68951;53.130;18.104;2024-02-28T12:34:00;14.60;;;6.40;;
79493;SDS011;68951;53.130;18.104;2024-02-28T12:36:29;14.20;;;7.20;;
79493;SDS011;68951;53.130;18.104;2024-02-28T12:38:57;13.50;;;6.10;;
79493;SDS011;68951;53.130;18.104;2024-02-28T12:41:26;12.50;;;6.20;;
79493;SDS011;68951;53.130;18.104;2024-02-28T12:43:54;14.30;;;7.70;;
79493;SDS011;68951;53.130;18.104;2024-02-28T12:46:21;14.10;;;6.80;;
79493;SDS011;68951;53.130;18.104;2024-02-28T12:48:48;14.30;;;6.90;;
79493;SDS011;68951;53.130;18.104;2024-02-28T12:51:36;13.70;;;6.60;;
79493;SDS011;68951;53.130;18.104;2024-02-28T12:54:05;13.40;;;6.10;;
79493;SDS011;68951;53.130;18.104;2024-02-28T12:56:32;12.90;;;6.90;;
79493;SDS011;68951;53.130;18.104;2024-02-28T12:58:59;16.00;;;7.50;;
79493;SDS011;68951;53.130;18.104;2024-02-28T13:01:27;12.90;;;6.10;;
79493;SDS011;68951;53.130;18.104;2024-02-28T13:03:55;20.00;;;12.20;;
79493;SDS011;68951;53.130;18.104;2024-02-28T13:06:22;17.10;;;9.50;;
79493;SDS011;68951;53.130;18.104;2024-02-28T13:08:49;16.70;;;9.20;;
79493;SDS011;68951;53.130;18.104;2024-02-28T13:11:20;13.60;;;6.70;;
79493;SDS011;68951;53.130;18.104;2024-02-28T13:13:49;12.50;;;6.70;;
79493;SDS011;68951;53.130;18.104;2024-02-28T13:16:17;11.70;;;5.80;;
79493;SDS011;68951;53.130;18.104;2024-02-28T13:18:45;12.60;;;6.10;;
79493;SDS011;68951;53.130;18.104;2024-02-28T13:21:12;14.60;;;6.40;;
79493;SDS011;68951;53.130;18.104;2024-02-28T13:23:40;11.60;;;5.70;;
79493;SDS011;68951;53.130;18.104;2024-02-28T13:26:07;11.30;;;5.80;;
79493;SDS011;68951;53.130;18.104;2024-02-28T13:28:34;11.80;;;5.70;;
79493;SDS011;68951;53.130;18.104;2024-02-28T13:31:03;13.40;;;5.70;;
79493;SDS011;68951;53.130;18.104;2024-02-28T13:33:33;12.70;;;5.90;;
79493;SDS011;68951;53.130;18.104;2024-02-28T13:35:59;11.70;;;5.80;;
79493;SDS011;68951;53.130;18.104;2024-02-28T13:38:26;10.80;;;5.30;;
79493;SDS011;68951;53.130;18.104;2024-02-28T13:40:53;11.30;;;5.20;;
79493;SDS011;68951;53.130;18.104;2024-02-28T13:43:20;11.20;;;5.30;;
79493;SDS011;68951;53.130;18.104;2024-02-28T13:45:50;11.00;;;5.30;;
79493;SDS011;68951;53.130;18.104;2024-02-28T13:48:26;11.90;;;5.50;;
79493;SDS011;68951;53.130;18.104;2024-02-28T13:50:55;12.20;;;6.30;;
79493;SDS011;68951;53.130;18.104;2024-02-28T13:53:22;11.90;;;5.70;;
79493;SDS011;68951;53.130;18.104;2024-02-28T13:55:48;10.90;;;5.50;;
79493;SDS011;68951;53.130;18.104;2024-02-28T13:58:15;12.80;;;5.60;;
79493;SDS011;68951;53.130;18.104;2024-02-28T14:00:44;11.90;;;5.70;;
79493;SDS011;68951;53.130;18.104;2024-02-28T14:03:13;12.40;;;5.90;;
79493;SDS011;68951;53.130;18.104;2024-02-28T14:05:41;12.80;;;5.70;;
79493;SDS011;68951;53.130;18.104;2024-02-28T14:08:08;12.60;;;4.80;;
79493;SDS011;68951;53.130;18.104;2024-02-28T14:10:35;10.40;;;5.20;;
79493;SDS011;68951;53.130;18.104;2024-02-28T14:13:03;11.80;;;5.30;;
79493;SDS011;68951;53.130;18.104;2024-02-28T14:15:30;10.90;;;5.10;;
79493;SDS011;68951;53.130;18.104;2024-02-28T14:17:57;10.90;;;5.50;;
79493;SDS011;68951;53.130;18.104;2024-02-28T14:20:24;12.90;;;6.30;;
79493;SDS011;68951;53.130;18.104;2024-02-28T14:22:51;15.80;;;6.60;;
79493;SDS011;68951;53.130;18.104;2024-02-28T14:25:18;14.60;;;7.10;;
79493;SDS011;68951;53.130;18.104;2024-02-28T14:27:47;14.40;;;6.90;;